Time;durP1;ratioP1;P1;durP2;ratioP2;P2;SDS_P1;SDS_P2;PMS_P1;PMS_P2;Temp;Humidity;BMP_temperature;BMP_pressure;BME280_temperature;BME280_humidity;BME280_pressure;Samples;Min_cycle;Max_cycle;Signal;HPM_P1;HPM_P2
2023/03/07 00:01:28;;;;;;;;;51.75;42.25;;;;;10.29;36.94;98399.94;5032777;28;8950;-77
2023/03/07 00:03:58;;;;;;;;;55.50;45.25;;;;;10.25;37.14;98407.06;5049633;28;8861;-79
2023/03/07 00:06:27;;;;;;;;;54.75;46.25;;;;;10.31;37.24;98408.59;5032949;28;8879;-80
2023/03/07 00:08:58;;;;;;;;;53.75;42.75;;;;;10.35;37.15;98404.97;5048147;28;8857;-78
2023/03/07 00:11:27;;;;;;;;;55.25;45.50;;;;;10.43;37.04;98404.69;5050367;28;9672;-81
2023/03/07 00:13:58;;;;;;;;;50.25;41.75;;;;;10.41;37.39;98404.72;5050873;28;8860;-78
2023/03/07 00:16:28;;;;;;;;;55.00;46.50;;;;;10.35;37.10;98397.94;5048499;28;8873;-78
2023/03/07 00:18:57;;;;;;;;;58.50;45.25;;;;;10.37;37.46;98398.75;5016000;28;8956;-77
2023/03/07 00:21:30;;;;;;;;;56.25;47.25;;;;;10.35;37.43;98397.09;5065904;28;9011;-80
2023/03/07 00:23:59;;;;;;;;;55.25;46.25;;;;;10.35;37.57;98404.97;5047404;28;8930;-80
2023/03/07 00:26:28;;;;;;;;;55.50;45.00;;;;;10.34;37.66;98396.22;5049199;28;8853;-77
2023/03/07 00:28:56;;;;;;;;;52.00;43.25;;;;;10.26;37.95;98392.19;5049570;28;8885;-79
2023/03/07 00:31:25;;;;;;;;;55.25;43.75;;;;;10.28;38.22;98398.25;5050497;28;9776;-78
2023/03/07 00:33:55;;;;;;;;;49.25;42.75;;;;;10.32;38.33;98402.44;5065595;28;8853;-79
2023/03/07 00:36:24;;;;;;;;;58.25;48.25;;;;;10.31;38.30;98404.22;5050362;28;8919;-79
2023/03/07 00:38:53;;;;;;;;;59.00;46.00;;;;;10.35;38.03;98405.81;5049585;28;8877;-78
2023/03/07 00:41:24;;;;;;;;;63.75;48.75;;;;;10.37;38.44;98403.16;4981767;28;10126;-78
2023/03/07 00:43:54;;;;;;;;;61.75;51.50;;;;;10.38;38.12;98405.69;5031709;28;8857;-78
2023/03/07 00:46:24;;;;;;;;;54.50;45.50;;;;;10.28;38.42;98419.25;5032830;28;8869;-79
2023/03/07 00:48:54;;;;;;;;;47.50;41.25;;;;;10.27;38.42;98422.78;5062390;28;8857;-78
2023/03/07 00:51:24;;;;;;;;;56.00;45.50;;;;;9.19;41.35;98442.28;5050807;28;8975;-77
2023/03/07 00:53:53;;;;;;;;;54.00;42.75;;;;;8.90;43.12;98445.88;5030607;28;9026;-79
2023/03/07 00:56:24;;;;;;;;;49.50;43.75;;;;;9.00;43.38;98442.03;5029756;28;8850;-79
2023/03/07 00:58:53;;;;;;;;;54.50;44.25;;;;;9.19;43.45;98439.66;5047380;28;8882;-80
2023/03/07 01:01:24;;;;;;;;;43.75;36.50;;;;;9.24;43.89;98435.97;5030662;28;8862;-81
2023/03/07 01:03:55;;;;;;;;;43.00;38.50;;;;;9.26;44.55;98433.31;5030811;28;9627;-79
2023/03/07 01:06:25;;;;;;;;;37.75;34.25;;;;;9.41;44.40;98414.44;5030602;28;8853;-78
2023/03/07 01:08:57;;;;;;;;;50.75;40.25;;;;;9.51;44.02;98414.13;5030592;28;8952;-76
2023/03/07 01:11:27;;;;;;;;;47.00;37.25;;;;;9.59;44.11;98412.09;5025739;28;8860;-78
2023/03/07 01:13:56;;;;;;;;;38.75;33.50;;;;;9.64;44.33;98396.22;5026645;28;8869;-79
2023/03/07 01:16:27;;;;;;;;;36.00;32.50;;;;;9.67;44.00;98383.84;4994568;28;8842;-80
2023/03/07 01:19:01;;;;;;;;;38.00;31.75;;;;;9.60;44.32;98387.59;5010014;28;8964;-77
2023/03/07 01:21:32;;;;;;;;;35.00;33.50;;;;;9.53;44.85;98389.53;5011135;28;8980;-79
2023/03/07 01:24:04;;;;;;;;;30.00;27.50;;;;;9.64;44.07;98381.31;5010717;28;8858;-79
2023/03/07 01:26:34;;;;;;;;;43.75;37.50;;;;;9.40;44.67;98376.00;5011106;28;8926;-80
2023/03/07 01:29:06;;;;;;;;;39.00;35.50;;;;;9.40;45.02;98369.88;5013525;28;8866;-80
2023/03/07 01:31:36;;;;;;;;;45.00;38.00;;;;;9.38;45.38;98361.22;5023759;28;9023;-81
2023/03/07 01:34:07;;;;;;;;;36.00;34.00;;;;;9.38;44.99;98355.97;4979213;28;8857;-79
2023/03/07 01:36:37;;;;;;;;;45.75;39.00;;;;;9.29;45.70;98366.78;4990376;28;8856;-79
2023/03/07 01:39:11;;;;;;;;;43.75;36.75;;;;;9.37;45.49;98365.63;5006759;28;8864;-79
2023/03/07 01:42:03;;;;;;;;;41.50;38.25;;;;;9.45;45.04;98375.00;5012194;28;8840;-76
2023/03/07 01:44:32;;;;;;;;;36.00;34.00;;;;;9.54;44.98;98364.19;5009473;28;8840;-78
2023/03/07 01:47:01;;;;;;;;;43.50;38.25;;;;;9.61;44.99;98373.53;5043397;28;9742;-80
2023/03/07 01:49:52;;;;;;;;;49.75;39.25;;;;;9.73;44.98;98362.63;5043732;28;8848;-78
2023/03/07 01:52:25;;;;;;;;;38.50;36.00;;;;;9.75;44.53;98360.78;5026519;28;8856;-80
2023/03/07 01:55:02;;;;;;;;;45.50;37.00;;;;;9.81;44.57;98367.59;5026802;28;8861;-77
2023/03/07 01:57:35;;;;;;;;;40.25;37.75;;;;;9.74;44.94;98369.56;5026449;28;8852;-79
2023/03/07 02:00:10;;;;;;;;;37.25;34.25;;;;;9.75;44.74;98365.19;5026655;28;8871;-78
2023/03/07 02:02:45;;;;;;;;;34.00;33.25;;;;;9.69;44.95;98368.03;5023223;28;8844;-80
2023/03/07 02:05:25;;;;;;;;;34.75;34.50;;;;;9.72;45.30;98355.66;5026641;28;8962;-78
2023/03/07 02:07:57;;;;;;;;;32.75;31.25;;;;;9.51;45.70;98359.88;5061751;28;8853;-79
2023/03/07 02:10:31;;;;;;;;;35.75;33.50;;;;;9.53;44.99;98358.06;5050258;28;8864;-81
2023/03/07 02:13:00;;;;;;;;;38.75;33.75;;;;;9.52;44.86;98356.34;5050032;28;8852;-77
2023/03/07 02:15:29;;;;;;;;;34.25;29.75;;;;;9.50;45.21;98350.31;5050052;28;8973;-79
2023/03/07 02:17:59;;;;;;;;;35.00;33.75;;;;;9.57;45.12;98343.97;5034338;28;8887;-78
2023/03/07 02:20:40;;;;;;;;;28.50;26.00;;;;;9.72;44.77;98339.91;5049596;28;8845;-78
2023/03/07 02:23:19;;;;;;;;;37.25;31.00;;;;;9.69;44.70;98347.91;5070192;28;8852;-78
2023/03/07 02:25:56;;;;;;;;;35.75;31.75;;;;;9.75;44.87;98346.81;5055003;28;8994;-79
2023/03/07 02:28:28;;;;;;;;;35.25;30.00;;;;;9.76;44.81;98346.78;5062430;28;8836;-76
2023/03/07 02:30:58;;;;;;;;;31.50;29.75;;;;;9.77;44.61;98343.22;5030809;28;8938;-80
2023/03/07 02:33:30;;;;;;;;;36.50;34.25;;;;;9.74;44.77;98339.84;5066747;28;8874;-80
2023/03/07 02:36:08;;;;;;;;;34.25;32.00;;;;;9.75;44.65;98344.19;5077944;28;8839;-78
2023/03/07 02:38:43;;;;;;;;;34.00;33.50;;;;;9.61;45.01;98334.19;5051675;28;8857;-79
2023/03/07 02:41:15;;;;;;;;;31.75;31.00;;;;;9.54;45.11;98340.56;5053770;28;8883;-79
2023/03/07 02:43:45;;;;;;;;;35.25;32.75;;;;;9.53;45.50;98334.44;5068157;28;8856;-78
2023/03/07 02:46:14;;;;;;;;;37.75;33.25;;;;;9.57;45.47;98346.59;5067191;28;8849;-79
2023/03/07 02:48:43;;;;;;;;;30.75;30.00;;;;;9.55;44.97;98345.72;5051172;28;9583;-78
2023/03/07 02:51:12;;;;;;;;;39.75;34.50;;;;;9.55;44.85;98339.63;5049546;28;8840;-78
2023/03/07 02:53:44;;;;;;;;;33.75;32.25;;;;;9.50;44.91;98331.06;5067564;28;8938;-79
2023/03/07 02:56:13;;;;;;;;;41.25;38.00;;;;;9.53;44.90;98330.97;5050290;28;8869;-78
2023/03/07 02:58:42;;;;;;;;;39.75;35.75;;;;;9.57;45.11;98329.97;5050852;28;8865;-79
2023/03/07 03:01:13;;;;;;;;;38.50;36.25;;;;;9.60;45.16;98327.25;5036682;28;8851;-78
2023/03/07 03:03:43;;;;;;;;;35.75;33.50;;;;;9.60;45.09;98329.88;5064464;28;8957;-78
2023/03/07 03:06:14;;;;;;;;;33.75;30.75;;;;;9.62;44.89;98333.28;5047276;28;8856;-79
2023/03/07 03:08:45;;;;;;;;;36.00;30.00;;;;;9.63;44.46;98335.03;5049662;28;8895;-80
2023/03/07 03:11:14;;;;;;;;;35.50;32.50;;;;;9.66;44.37;98336.66;5067356;28;8879;-78
2023/03/07 03:13:43;;;;;;;;;35.50;32.50;;;;;9.64;44.73;98334.09;5067620;28;8861;-76
2023/03/07 03:16:13;;;;;;;;;32.80;30.60;;;;;9.63;44.64;98327.16;5030690;28;8859;-78
2023/03/07 03:18:42;;;;;;;;;39.75;36.00;;;;;9.66;44.58;98324.41;5047737;28;8855;-78
2023/03/07 03:21:13;;;;;;;;;34.75;31.75;;;;;9.69;44.38;98326.91;5047164;28;8978;-79
2023/03/07 03:23:42;;;;;;;;;30.25;28.75;;;;;9.65;44.56;98327.06;5063715;28;8867;-80
2023/03/07 03:26:11;;;;;;;;;33.50;29.25;;;;;9.69;44.83;98326.03;5046524;28;8851;-79
2023/03/07 03:28:40;;;;;;;;;32.50;31.25;;;;;9.70;44.67;98319.88;5045982;28;8844;-80
2023/03/07 03:31:13;;;;;;;;;32.50;31.25;;;;;9.73;44.46;98323.25;5053786;28;8844;-78
2023/03/07 03:33:44;;;;;;;;;36.75;28.00;;;;;9.72;44.67;98318.91;5023689;28;9601;-78
2023/03/07 03:36:16;;;;;;;;;31.00;30.25;;;;;9.74;44.74;98310.97;5026570;28;8872;-76
2023/03/07 03:38:48;;;;;;;;;25.50;24.25;;;;;9.70;44.93;98322.50;5075635;28;8908;-79
2023/03/07 03:41:17;;;;;;;;;26.25;24.50;;;;;9.69;44.79;98323.41;5078690;28;8880;-78
2023/03/07 03:43:48;;;;;;;;;37.50;32.25;;;;;9.68;44.97;98332.22;5067412;28;8857;-79
2023/03/07 03:46:18;;;;;;;;;37.00;34.50;;;;;9.28;45.82;98325.75;5062320;28;8861;-77
2023/03/07 03:48:53;;;;;;;;;47.25;41.25;;;;;8.68;48.03;98336.47;5034706;28;8898;-79
2023/03/07 03:51:25;;;;;;;;;47.00;39.75;;;;;8.80;48.25;98336.09;5034362;28;9590;-77
2023/03/07 03:53:57;;;;;;;;;41.25;38.50;;;;;8.91;48.14;98334.88;5017655;28;8854;-78
2023/03/07 03:56:28;;;;;;;;;41.00;38.25;;;;;9.07;47.81;98329.97;5050202;28;8863;-79
2023/03/07 03:58:57;;;;;;;;;37.25;32.50;;;;;9.09;46.76;98331.63;5065842;28;9746;-78
2023/03/07 04:01:28;;;;;;;;;36.00;30.50;;;;;9.16;46.27;98325.28;4976166;28;8858;-77
2023/03/07 04:03:59;;;;;;;;;34.25;34.00;;;;;9.27;46.55;98321.41;4991133;28;8866;-79
2023/03/07 04:06:30;;;;;;;;;46.50;38.75;;;;;9.21;47.35;98330.34;5010188;28;8858;-76
2023/03/07 04:09:01;;;;;;;;;42.50;39.25;;;;;9.06;47.49;98325.63;5009726;28;8974;-79
2023/03/07 04:11:30;;;;;;;;;43.75;38.75;;;;;9.21;46.89;98325.09;5010024;28;8874;-79
2023/03/07 04:13:59;;;;;;;;;45.00;37.25;;;;;9.28;46.45;98328.38;5023231;28;8862;-78
2023/03/07 04:16:28;;;;;;;;;51.75;40.50;;;;;9.32;46.00;98330.81;4982674;28;8851;-78
2023/03/07 04:18:59;;;;;;;;;50.25;43.50;;;;;9.28;46.01;98331.00;5010301;28;8888;-76
2023/03/07 04:21:28;;;;;;;;;42.50;38.50;;;;;9.12;47.00;98335.91;5016037;28;8854;-79
2023/03/07 04:23:59;;;;;;;;;41.75;37.25;;;;;8.73;47.46;98338.97;5027310;28;8942;-77
2023/03/07 04:26:33;;;;;;;;;40.75;37.50;;;;;8.70;47.80;98344.31;5023724;28;8890;-77
2023/03/07 04:29:03;;;;;;;;;50.50;43.50;;;;;8.79;47.92;98339.59;5006376;28;8894;-78
2023/03/07 04:31:36;;;;;;;;;41.25;37.50;;;;;8.75;47.92;98342.41;5008350;28;8866;-79
2023/03/07 04:34:07;;;;;;;;;56.50;47.25;;;;;8.96;47.38;98349.53;5063418;28;8909;-78
2023/03/07 04:36:36;;;;;;;;;40.50;36.25;;;;;9.08;47.34;98344.78;5081119;28;8895;-78
2023/03/07 04:39:06;;;;;;;;;41.00;38.25;;;;;9.18;47.42;98343.56;5047766;28;8950;-77
2023/03/07 04:41:37;;;;;;;;;40.50;34.50;;;;;9.23;47.07;98341.63;5014326;28;8953;-79
2023/03/07 04:44:19;;;;;;;;;42.25;37.50;;;;;9.06;47.27;98339.59;5007148;28;9697;-80
2023/03/07 04:46:49;;;;;;;;;34.25;33.50;;;;;9.14;46.55;98334.06;5029258;28;10159;-78
2023/03/07 04:49:19;;;;;;;;;84.67;67.67;;;;;9.21;46.39;98338.22;5012338;28;8860;-78
2023/03/07 04:51:49;;;;;;;;;48.00;42.50;;;;;9.28;46.36;98342.34;4980789;28;9209;-79
2023/03/07 04:54:19;;;;;;;;;56.00;46.50;;;;;9.28;45.98;98338.88;5009842;28;8863;-75
2023/03/07 04:56:50;;;;;;;;;46.25;39.75;;;;;9.32;45.75;98338.69;5015137;28;8856;-80
2023/03/07 04:59:18;;;;;;;;;40.50;36.00;;;;;9.34;45.56;98339.50;5025234;28;8864;-78
2023/03/07 05:01:50;;;;;;;;;39.25;36.25;;;;;9.39;45.11;98345.44;4996065;28;8953;-78
2023/03/07 05:04:20;;;;;;;;;38.00;34.25;;;;;9.41;44.56;98343.63;5009815;28;9637;-78
2023/03/07 05:06:49;;;;;;;;;22.75;21.75;;;;;9.41;44.53;98348.00;5026569;28;8911;-77
2023/03/07 05:09:18;;;;;;;;;52.50;40.00;;;;;9.32;45.54;98345.72;5012517;28;8852;-78
2023/03/07 05:11:47;;;;;;;;;46.25;41.00;;;;;9.26;45.94;98340.69;5036998;28;8875;-77
2023/03/07 05:14:16;;;;;;;;;41.25;36.75;;;;;9.33;45.51;98344.78;5062167;28;8845;-78
2023/03/07 05:16:45;;;;;;;;;46.75;39.50;;;;;9.37;45.28;98347.25;5045657;28;8845;-79
2023/03/07 05:19:14;;;;;;;;;102.50;86.00;;;;;9.39;45.76;98352.47;5044774;28;8851;-77
2023/03/07 05:21:46;;;;;;;;;76.00;59.00;;;;;9.41;45.45;98345.38;5006408;28;10917;-77
2023/03/07 05:24:15;;;;;;;;;55.75;44.25;;;;;9.40;45.09;98347.16;5005576;28;9389;-80
2023/03/07 05:26:44;;;;;;;;;52.50;44.50;;;;;9.38;45.42;98354.19;5005514;28;8867;-76
2023/03/07 05:29:13;;;;;;;;;51.50;42.75;;;;;9.39;46.00;98352.47;5022005;28;8940;-77
2023/03/07 05:31:42;;;;;;;;;76.00;61.00;;;;;9.40;46.41;98341.03;5005657;28;8862;-76
2023/03/07 05:34:11;;;;;;;;;50.25;43.00;;;;;9.45;45.84;98349.59;4958591;28;9048;-77
2023/03/07 05:36:41;;;;;;;;;50.25;43.25;;;;;9.49;45.55;98355.59;5005417;28;9608;-76
2023/03/07 05:39:11;;;;;;;;;63.00;51.25;;;;;9.37;46.78;98355.13;5005218;28;8876;-78
2023/03/07 05:41:40;;;;;;;;;53.75;44.00;;;;;9.10;47.46;98361.31;5021817;28;8854;-78
2023/03/07 05:44:11;;;;;;;;;56.50;47.50;;;;;9.01;47.32;98371.22;5021934;28;8877;-76
2023/03/07 05:46:40;;;;;;;;;58.00;47.75;;;;;9.01;47.60;98376.44;5006492;28;8896;-78
2023/03/07 05:49:09;;;;;;;;;58.25;47.00;;;;;9.08;47.45;98381.47;5005819;28;8927;-76
2023/03/07 05:51:38;;;;;;;;;51.75;42.50;;;;;8.98;47.38;98383.56;5006499;28;10035;-78
2023/03/07 05:54:06;;;;;;;;;52.25;44.00;;;;;8.49;48.53;98393.84;5072664;28;8977;-77
2023/03/07 05:56:38;;;;;;;;;59.00;47.50;;;;;6.94;53.39;98398.97;5064690;28;8942;-77
2023/03/07 05:59:10;;;;;;;;;54.00;44.75;;;;;5.92;57.04;98409.03;5048492;28;9666;-77
2023/03/07 06:01:39;;;;;;;;;46.75;40.75;;;;;5.53;57.77;98410.69;5048513;28;8853;-79
2023/03/07 06:04:07;;;;;;;;;55.25;43.75;;;;;5.73;57.82;98410.28;5046898;28;9645;-78
2023/03/07 06:06:37;;;;;;;;;55.50;45.50;;;;;5.74;57.92;98409.41;5050634;28;8961;-79
2023/03/07 06:09:06;;;;;;;;;50.00;43.25;;;;;5.93;57.24;98404.69;5045594;28;8878;-80
2023/03/07 06:11:35;;;;;;;;;44.25;40.50;;;;;6.54;55.29;98392.06;5034170;28;8846;-77
2023/03/07 06:14:05;;;;;;;;;51.75;43.00;;;;;6.94;53.25;98391.13;5018301;28;8835;-80
2023/03/07 06:16:35;;;;;;;;;34.75;32.00;;;;;7.29;52.96;98394.63;5034002;28;8873;-80
2023/03/07 06:19:04;;;;;;;;;57.75;48.25;;;;;7.59;52.04;98398.16;5017587;28;9115;-81
2023/03/07 06:21:33;;;;;;;;;58.50;48.50;;;;;7.85;51.22;98400.06;5044011;28;8886;-78
2023/03/07 06:24:02;;;;;;;;;57.50;48.00;;;;;8.12;50.48;98399.28;5013877;28;8851;-77
2023/03/07 06:26:31;;;;;;;;;58.25;45.75;;;;;8.35;50.11;98401.28;5013431;28;8949;-80
2023/03/07 06:29:00;;;;;;;;;60.50;50.50;;;;;8.61;49.00;98408.31;5013471;28;9969;-78
2023/03/07 06:31:31;;;;;;;;;58.00;46.00;;;;;8.80;48.63;98412.09;5012163;28;8840;-79
2023/03/07 06:34:00;;;;;;;;;60.00;46.25;;;;;8.99;48.19;98411.50;5011776;28;8850;-77
2023/03/07 06:36:30;;;;;;;;;58.25;48.50;;;;;9.16;47.67;98408.31;5034278;28;8862;-78
2023/03/07 06:39:02;;;;;;;;;59.25;49.75;;;;;9.26;47.09;98408.88;5028399;28;8870;-79
2023/03/07 06:41:32;;;;;;;;;59.75;48.50;;;;;9.38;47.20;98405.81;4993589;28;8858;-78
2023/03/07 06:44:02;;;;;;;;;60.25;48.50;;;;;9.47;47.18;98412.50;5001449;28;8970;-80
2023/03/07 06:46:35;;;;;;;;;61.25;48.75;;;;;9.58;47.43;98410.41;5046840;28;8840;-78
2023/03/07 06:49:09;;;;;;;;;60.50;50.50;;;;;9.62;47.32;98417.25;5014574;28;8878;-80
2023/03/07 06:51:59;;;;;;;;;63.00;51.25;;;;;9.84;47.42;98404.22;5007067;28;8846;-80
2023/03/07 06:54:28;;;;;;;;;61.50;50.00;;;;;9.96;47.00;98413.41;4990975;28;8869;-82
2023/03/07 06:56:57;;;;;;;;;59.25;49.25;;;;;10.04;46.69;98413.13;4992499;28;8838;-79
2023/03/07 06:59:25;;;;;;;;;62.25;51.00;;;;;10.16;46.31;98408.28;4978785;28;8985;-79
2023/03/07 07:01:56;;;;;;;;;62.00;48.00;;;;;10.29;46.03;98415.69;4993894;28;8834;-79
2023/03/07 07:04:25;;;;;;;;;58.25;49.25;;;;;10.40;45.46;98417.00;4976578;28;8841;-82
2023/03/07 07:06:54;;;;;;;;;59.50;49.50;;;;;10.53;45.07;98420.00;4979052;28;8830;-79
2023/03/07 07:09:22;;;;;;;;;62.50;52.00;;;;;10.64;45.29;98422.22;4963121;28;8952;-81
2023/03/07 07:11:51;;;;;;;;;61.50;50.25;;;;;10.67;44.76;98415.97;5000619;28;8869;-82
2023/03/07 07:14:20;;;;;;;;;62.25;51.75;;;;;10.82;44.44;98425.91;5020477;28;8856;-81
2023/03/07 07:16:50;;;;;;;;;61.50;51.25;;;;;10.93;43.95;98425.50;5015297;28;8850;-83
2023/03/07 07:19:21;;;;;;;;;59.50;49.25;;;;;11.06;43.22;98421.44;5015312;28;8870;-82
2023/03/07 07:21:51;;;;;;;;;55.25;45.75;;;;;11.25;42.86;98420.69;5032135;28;10101;-82
2023/03/07 07:24:19;;;;;;;;;57.75;48.75;;;;;11.43;42.33;98421.69;5037687;28;8871;-81
2023/03/07 07:26:49;;;;;;;;;62.00;50.00;;;;;11.59;42.32;98421.88;5054772;28;8847;-81
2023/03/07 07:29:38;;;;;;;;;56.50;46.25;;;;;11.72;41.75;98423.91;5052635;28;8836;-80
2023/03/07 07:32:10;;;;;;;;;60.00;48.25;;;;;11.83;41.05;98433.16;5050577;28;9730;-79
2023/03/07 07:34:42;;;;;;;;;60.50;49.75;;;;;11.93;40.75;98418.66;5051007;28;8874;-81
2023/03/07 07:37:12;;;;;;;;;63.75;49.75;;;;;12.04;40.27;98424.31;5033767;28;8854;-80
2023/03/07 07:39:42;;;;;;;;;58.75;47.50;;;;;12.07;40.12;98426.81;5033295;28;8967;-81
2023/03/07 07:42:12;;;;;;;;;61.75;49.25;;;;;12.19;40.28;98417.47;5013346;28;8870;-81
2023/03/07 07:44:53;;;;;;;;;62.75;49.75;;;;;12.36;40.18;98423.78;5047108;28;8906;-82
2023/03/07 07:47:23;;;;;;;;;53.75;45.75;;;;;12.47;39.74;98419.69;5012752;28;9726;-82
2023/03/07 07:49:53;;;;;;;;;61.25;49.75;;;;;12.61;38.92;98419.03;4997805;28;8848;-81
2023/03/07 07:52:22;;;;;;;;;60.75;49.50;;;;;12.70;38.77;98417.75;4977859;28;8882;-82
2023/03/07 07:54:52;;;;;;;;;55.75;47.50;;;;;12.84;38.38;98414.44;5047627;28;8995;-82
2023/03/07 07:57:21;;;;;;;;;56.25;46.25;;;;;12.91;38.62;98415.91;5019214;28;8891;-81
2023/03/07 07:59:51;;;;;;;;;59.50;49.00;;;;;13.04;38.47;98424.91;5047040;28;9648;-81
2023/03/07 08:02:20;;;;;;;;;59.00;48.50;;;;;13.13;38.39;98421.00;5013323;28;8836;-83
2023/03/07 08:04:49;;;;;;;;;59.00;48.75;;;;;13.23;37.79;98416.09;4997104;28;9059;-80
2023/03/07 08:07:19;;;;;;;;;57.00;47.33;;;;;12.05;38.03;98414.59;4996609;28;8856;-81
2023/03/07 08:09:48;;;;;;;;;59.25;48.25;;;;;12.10;39.15;98421.38;5013270;28;8867;-80
2023/03/07 08:12:18;;;;;;;;;54.25;45.00;;;;;12.61;38.63;98413.75;5031767;28;8878;-79
2023/03/07 08:14:47;;;;;;;;;58.75;46.50;;;;;12.89;37.55;98415.13;5033059;28;8887;-81
2023/03/07 08:17:17;;;;;;;;;48.25;39.50;;;;;13.03;35.76;98411.81;5029653;28;8839;-82
2023/03/07 08:19:46;;;;;;;;;52.50;43.75;;;;;13.22;36.42;98403.81;5031899;28;8863;-81
2023/03/07 08:22:16;;;;;;;;;58.00;46.25;;;;;13.33;36.17;98409.41;5014075;28;8851;-81
2023/03/07 08:24:46;;;;;;;;;33.00;29.00;;;;;13.44;35.23;98411.53;5031356;28;8884;-82
2023/03/07 08:27:15;;;;;;;;;50.50;42.25;;;;;13.63;34.04;98409.63;4995740;28;8854;-81
2023/03/07 08:29:47;;;;;;;;;52.00;40.00;;;;;13.67;34.43;98405.91;5049014;28;8873;-81
2023/03/07 08:32:16;;;;;;;;;49.50;41.25;;;;;13.75;33.88;98397.59;5084109;28;8857;-80
2023/03/07 08:34:46;;;;;;;;;46.50;38.75;;;;;13.35;33.98;98401.44;5028160;28;8944;-83
2023/03/07 08:37:15;;;;;;;;;42.75;36.00;;;;;13.62;33.35;98402.66;5028731;28;8848;-81
2023/03/07 08:39:43;;;;;;;;;39.75;35.25;;;;;13.85;32.89;98398.84;5012249;28;8914;-81
2023/03/07 08:42:14;;;;;;;;;37.75;35.00;;;;;13.98;32.75;98404.34;5029609;28;9053;-82
2023/03/07 08:44:43;;;;;;;;;38.00;33.75;;;;;13.98;32.53;98396.41;5012107;28;8856;-81
2023/03/07 08:47:15;;;;;;;;;46.00;38.75;;;;;14.31;32.47;98405.25;5029010;28;8922;-81
2023/03/07 08:49:46;;;;;;;;;42.75;36.25;;;;;14.35;31.86;98391.75;5028382;28;8896;-84
2023/03/07 08:52:17;;;;;;;;;44.00;36.00;;;;;14.56;31.96;98387.06;5012098;28;9040;-82
2023/03/07 08:54:45;;;;;;;;;47.50;39.25;;;;;14.72;32.23;98392.41;5012267;28;8856;-81
2023/03/07 08:57:16;;;;;;;;;43.50;37.25;;;;;14.92;32.28;98391.25;5028234;28;8880;-83
2023/03/07 08:59:45;;;;;;;;;44.00;36.50;;;;;15.08;31.82;98395.69;5011424;28;8880;-81
2023/03/07 09:02:14;;;;;;;;;43.75;37.00;;;;;15.15;31.23;98395.22;5012310;28;8864;-82
2023/03/07 09:04:44;;;;;;;;;44.50;36.75;;;;;15.15;31.35;98397.00;4996178;28;8981;-82
2023/03/07 09:07:13;;;;;;;;;47.00;39.00;;;;;15.26;31.05;98394.56;5071948;28;8867;-82
2023/03/07 09:09:42;;;;;;;;;41.00;36.75;;;;;15.21;31.71;98392.22;5054265;28;8980;-82
2023/03/07 09:12:11;;;;;;;;;45.25;38.50;;;;;15.32;31.01;98388.94;5068867;28;8840;-81
2023/03/07 09:15:04;;;;;;;;;48.75;38.00;;;;;15.28;30.92;98392.69;4978452;28;10083;-82
2023/03/07 09:17:33;;;;;;;;;37.75;34.50;;;;;15.34;30.50;98394.13;5002005;28;8890;-82
2023/03/07 09:20:03;;;;;;;;;38.75;34.50;;;;;15.29;30.67;98389.13;4996032;28;8988;-83
2023/03/07 09:22:32;;;;;;;;;39.00;35.25;;;;;15.35;30.83;98388.75;5008708;28;8956;-82
2023/03/07 09:25:01;;;;;;;;;31.50;28.50;;;;;15.38;30.76;98396.50;5022564;28;8984;-83
2023/03/07 09:27:30;;;;;;;;;33.75;32.25;;;;;15.20;30.67;98394.94;4991604;28;8921;-81
2023/03/07 09:29:59;;;;;;;;;40.50;35.00;;;;;15.32;30.85;98391.59;4992749;28;9593;-81
2023/03/07 09:32:32;;;;;;;;;33.00;30.25;;;;;15.41;30.65;98388.38;5021058;28;8879;-82
2023/03/07 09:35:00;;;;;;;;;27.25;26.50;;;;;15.54;30.31;98391.16;5001956;28;8870;-81
2023/03/07 09:37:29;;;;;;;;;31.75;28.25;;;;;15.64;29.79;98384.41;4963532;28;8855;-81
2023/03/07 09:39:59;;;;;;;;;32.50;31.50;;;;;15.80;30.26;98378.16;5037897;28;8892;-80
2023/03/07 09:42:36;;;;;;;;;36.00;31.75;;;;;15.92;29.78;98384.50;5051537;28;8863;-81
2023/03/07 09:45:35;;;;;;;;;31.00;29.75;;;;;16.14;29.70;98362.81;5044777;28;8914;-82
2023/03/07 09:48:44;;;;;;;;;23.75;23.00;;;;;15.98;28.60;98374.38;5018019;28;8948;-81
2023/03/07 09:51:18;;;;;;;;;29.25;27.25;;;;;15.96;28.29;98363.03;5021836;28;8874;-82
2023/03/07 09:53:53;;;;;;;;;10.75;9.25;;;;;15.99;28.87;98369.94;5047808;28;8843;-81
2023/03/07 09:56:25;;;;;;;;;22.80;22.40;;;;;16.03;28.50;98359.03;5027537;28;8857;-81
2023/03/07 09:59:01;;;;;;;;;41.25;34.50;;;;;16.04;28.63;98370.50;5018329;28;9829;-81
2023/03/07 10:01:44;;;;;;;;;23.00;21.60;;;;;15.40;29.08;98360.19;5034810;28;8986;-81
2023/03/07 10:04:21;;;;;;;;;20.60;18.60;;;;;15.50;29.32;98359.66;5047320;28;8882;-80
2023/03/07 10:06:55;;;;;;;;;23.60;23.60;;;;;15.34;28.96;98357.06;5047235;28;8905;-80
2023/03/07 10:09:27;;;;;;;;;21.20;19.60;;;;;15.09;29.18;98355.00;5031074;28;9594;-81
2023/03/07 10:12:24;;;;;;;;;21.25;20.75;;;;;15.11;29.70;98346.03;5011570;28;8858;-82
2023/03/07 10:15:11;;;;;;;;;22.40;22.00;;;;;15.43;29.62;98345.91;5038708;28;8851;-80
2023/03/07 10:17:56;;;;;;;;;18.00;18.00;;;;;15.49;29.55;98348.22;5031068;28;8856;-82
2023/03/07 10:20:35;;;;;;;;;30.00;29.75;;;;;15.11;29.26;98350.47;4988485;28;8858;-80
2023/03/07 10:23:29;;;;;;;;;20.60;20.60;;;;;14.33;30.18;98353.97;4952963;28;8844;-80
2023/03/07 10:26:05;;;;;;;;;18.80;18.60;;;;;12.99;32.03;98360.97;4987661;28;8858;-81
2023/03/07 10:28:38;;;;;;;;;21.00;18.00;;;;;13.28;32.56;98356.03;5023789;28;8856;-81
2023/03/07 10:31:24;;;;;;;;;19.00;17.80;;;;;14.12;31.60;98348.09;5007581;28;8847;-81
2023/03/07 10:33:54;;;;;;;;;21.40;21.40;;;;;14.38;31.01;98343.16;5008791;28;8850;-82
2023/03/07 10:36:43;;;;;;;;;20.00;20.00;;;;;14.86;30.71;98343.97;5007891;28;8858;-82
2023/03/07 10:39:23;;;;;;;;;21.40;20.40;;;;;15.03;29.89;98345.63;5007958;28;8846;-81
2023/03/07 10:41:53;;;;;;;;;20.40;20.40;;;;;14.92;29.11;98345.41;5022001;28;8862;-81
2023/03/07 10:44:22;;;;;;;;;24.00;21.40;;;;;14.37;30.30;98344.94;4997359;28;9083;-81
2023/03/07 10:46:57;;;;;;;;;25.40;23.60;;;;;14.94;30.37;98347.03;5008115;28;10041;-81
2023/03/07 10:49:29;;;;;;;;;29.20;25.20;;;;;15.29;30.48;98344.09;4973789;28;8866;-81
2023/03/07 10:52:06;;;;;;;;;36.00;33.25;;;;;14.56;31.00;98354.47;5020451;28;8867;-84
2023/03/07 10:54:36;;;;;;;;;32.50;30.00;;;;;14.86;31.05;98350.13;5055886;28;8946;-82
2023/03/07 10:57:08;;;;;;;;;21.75;21.00;;;;;14.58;30.59;98349.97;5054530;28;8968;-80
2023/03/07 10:59:39;;;;;;;;;20.40;18.60;;;;;15.20;29.70;98336.72;5042132;28;8873;-82
2023/03/07 11:02:31;;;;;;;;;24.00;20.20;;;;;15.18;29.36;98342.09;5069724;28;8875;-81
2023/03/07 11:05:01;;;;;;;;;28.25;27.50;;;;;14.15;31.11;98336.50;5051732;28;8942;-80
2023/03/07 11:07:34;;;;;;;;;21.60;21.40;;;;;14.95;30.20;98332.03;5053583;28;8849;-82
2023/03/07 11:10:24;;;;;;;;;36.50;31.00;;;;;15.32;30.29;98330.69;5051975;28;8856;-83
2023/03/07 11:12:56;;;;;;;;;31.75;31.00;;;;;15.27;29.83;98326.63;5053572;28;8852;-81
2023/03/07 11:15:26;;;;;;;;;33.75;32.25;;;;;15.39;29.98;98328.50;5052765;28;8977;-81
2023/03/07 11:17:56;;;;;;;;;34.25;31.75;;;;;15.62;30.20;98324.50;5069852;28;8829;-81
2023/03/07 11:20:27;;;;;;;;;35.00;31.75;;;;;16.07;29.88;98311.13;5052069;28;8929;-81
2023/03/07 11:23:22;;;;;;;;;34.50;31.50;;;;;16.21;29.28;98311.13;5043471;28;8849;-82
2023/03/07 11:25:52;;;;;;;;;12.00;12.00;;;;;14.82;29.35;98298.31;5035324;28;8884;-82
2023/03/07 11:28:27;;;;;;;;;15.80;15.20;;;;;14.83;28.78;98302.69;5060110;28;8926;-81
2023/03/07 11:31:07;;;;;;;;;15.80;15.80;;;;;14.01;29.75;98298.47;5072108;28;8857;-82
2023/03/07 11:33:47;;;;;;;;;13.40;10.40;;;;;14.04;29.74;98306.22;4997731;28;9602;-82
2023/03/07 11:36:31;;;;;;;;;9.80;9.80;;;;;13.46;30.19;98296.13;5025839;28;8858;-82
2023/03/07 11:39:12;;;;;;;;;14.80;11.20;;;;;14.30;29.77;98298.66;5025035;28;8844;-81
2023/03/07 11:41:46;;;;;;;;;8.80;8.80;;;;;13.64;29.82;98304.88;4999016;28;8879;-83
2023/03/07 11:44:29;;;;;;;;;11.60;11.00;;;;;13.18;30.00;98292.28;5031125;28;8860;-82
2023/03/07 11:47:24;;;;;;;;;14.80;14.80;;;;;13.18;30.94;98297.56;5046948;28;9126;-80
2023/03/07 11:50:14;;;;;;;;;42.25;36.50;;;;;12.93;31.73;98290.06;5010622;28;8862;-81
2023/03/07 11:53:02;;;;;;;;;20.20;17.20;;;;;13.48;31.01;98287.19;5008879;28;8988;-81